sensor_id;sensor_type;location;lat;lon;timestamp;P1;durP1;ratioP1;P2;durP2;ratioP2
21741;SDS011;11033;47.490;11.116;2023-06-19T00:01:04;19.00;;;17.02;;
21741;SDS011;11033;47.490;11.116;2023-06-19T00:03:29;17.87;;;16.20;;
21741;SDS011;11033;47.490;11.116;2023-06-19T00:05:54;18.85;;;17.05;;
21741;SDS011;11033;47.490;11.116;2023-06-19T00:08:20;17.37;;;15.87;;
21741;SDS011;11033;47.490;11.116;2023-06-19T00:10:45;19.67;;;17.88;;
21741;SDS011;11033;47.490;11.116;2023-06-19T00:13:10;18.80;;;17.10;;
21741;SDS011;11033;47.490;11.116;2023-06-19T00:15:35;17.13;;;15.70;;
21741;SDS011;11033;47.490;11.116;2023-06-19T00:18:00;19.63;;;15.83;;
21741;SDS011;11033;47.490;11.116;2023-06-19T00:20:25;19.23;;;17.45;;
21741;SDS011;11033;47.490;11.116;2023-06-19T00:22:51;17.77;;;15.95;;
21741;SDS011;11033;47.490;11.116;2023-06-19T00:25:19;18.73;;;16.67;;
21741;SDS011;11033;47.490;11.116;2023-06-19T00:27:46;18.42;;;16.88;;
21741;SDS011;11033;47.490;11.116;2023-06-19T00:30:11;18.17;;;16.55;;
21741;SDS011;11033;47.490;11.116;2023-06-19T00:32:36;18.20;;;16.70;;
21741;SDS011;11033;47.490;11.116;2023-06-19T00:35:11;19.27;;;17.58;;
21741;SDS011;11033;47.490;11.116;2023-06-19T00:37:36;17.55;;;16.13;;
21741;SDS011;11033;47.490;11.116;2023-06-19T00:40:01;17.83;;;16.23;;
21741;SDS011;11033;47.490;11.116;2023-06-19T00:42:26;19.60;;;17.70;;
21741;SDS011;11033;47.490;11.116;2023-06-19T00:44:52;18.33;;;16.63;;
21741;SDS011;11033;47.490;11.116;2023-06-19T00:47:17;18.65;;;16.95;;
21741;SDS011;11033;47.490;11.116;2023-06-19T00:49:42;18.77;;;16.90;;
21741;SDS011;11033;47.490;11.116;2023-06-19T00:52:07;17.13;;;15.67;;
21741;SDS011;11033;47.490;11.116;2023-06-19T00:54:32;18.17;;;16.47;;
21741;SDS011;11033;47.490;11.116;2023-06-19T00:56:57;18.10;;;16.33;;
21741;SDS011;11033;47.490;11.116;2023-06-19T00:59:23;18.70;;;16.93;;
21741;SDS011;11033;47.490;11.116;2023-06-19T01:01:48;19.05;;;17.35;;
21741;SDS011;11033;47.490;11.116;2023-06-19T01:04:13;18.83;;;17.03;;
21741;SDS011;11033;47.490;11.116;2023-06-19T01:06:53;18.53;;;16.90;;
21741;SDS011;11033;47.490;11.116;2023-06-19T01:09:22;19.10;;;17.42;;
21741;SDS011;11033;47.490;11.116;2023-06-19T01:11:52;18.02;;;16.40;;
21741;SDS011;11033;47.490;11.116;2023-06-19T01:14:21;18.65;;;16.92;;
21741;SDS011;11033;47.490;11.116;2023-06-19T01:16:46;18.35;;;16.85;;
21741;SDS011;11033;47.490;11.116;2023-06-19T01:19:14;17.25;;;15.80;;
21741;SDS011;11033;47.490;11.116;2023-06-19T01:21:40;18.40;;;16.73;;
21741;SDS011;11033;47.490;11.116;2023-06-19T01:24:06;18.05;;;16.45;;
21741;SDS011;11033;47.490;11.116;2023-06-19T01:26:31;17.93;;;15.97;;
21741;SDS011;11033;47.490;11.116;2023-06-19T01:28:57;19.42;;;17.30;;
21741;SDS011;11033;47.490;11.116;2023-06-19T01:31:26;19.67;;;17.67;;
21741;SDS011;11033;47.490;11.116;2023-06-19T01:33:52;18.85;;;17.25;;
21741;SDS011;11033;47.490;11.116;2023-06-19T01:36:19;18.80;;;17.15;;
21741;SDS011;11033;47.490;11.116;2023-06-19T01:38:45;19.35;;;17.52;;
21741;SDS011;11033;47.490;11.116;2023-06-19T01:41:12;18.90;;;17.20;;
21741;SDS011;11033;47.490;11.116;2023-06-19T01:43:37;18.08;;;16.55;;
21741;SDS011;11033;47.490;11.116;2023-06-19T01:46:03;18.75;;;17.08;;
21741;SDS011;11033;47.490;11.116;2023-06-19T01:48:29;19.30;;;17.27;;
21741;SDS011;11033;47.490;11.116;2023-06-19T01:50:54;19.10;;;17.25;;
21741;SDS011;11033;47.490;11.116;2023-06-19T01:53:19;19.60;;;17.80;;
21741;SDS011;11033;47.490;11.116;2023-06-19T01:55:44;18.30;;;16.77;;
21741;SDS011;11033;47.490;11.116;2023-06-19T01:58:09;20.03;;;18.20;;
21741;SDS011;11033;47.490;11.116;2023-06-19T02:00:35;19.60;;;17.35;;
21741;SDS011;11033;47.490;11.116;2023-06-19T02:03:00;18.80;;;17.00;;
21741;SDS011;11033;47.490;11.116;2023-06-19T02:05:25;19.02;;;17.42;;
21741;SDS011;11033;47.490;11.116;2023-06-19T02:07:50;20.17;;;18.33;;
21741;SDS011;11033;47.490;11.116;2023-06-19T02:10:16;18.87;;;17.17;;
21741;SDS011;11033;47.490;11.116;2023-06-19T02:12:41;19.70;;;17.90;;
21741;SDS011;11033;47.490;11.116;2023-06-19T02:15:06;18.97;;;17.37;;
21741;SDS011;11033;47.490;11.116;2023-06-19T02:17:32;18.88;;;17.27;;
21741;SDS011;11033;47.490;11.116;2023-06-19T02:19:57;19.57;;;17.87;;
21741;SDS011;11033;47.490;11.116;2023-06-19T02:22:23;18.07;;;16.50;;
21741;SDS011;11033;47.490;11.116;2023-06-19T02:24:48;19.23;;;17.52;;
21741;SDS011;11033;47.490;11.116;2023-06-19T02:27:13;18.77;;;17.03;;
21741;SDS011;11033;47.490;11.116;2023-06-19T02:29:39;18.55;;;16.83;;
21741;SDS011;11033;47.490;11.116;2023-06-19T02:32:04;17.87;;;16.27;;
21741;SDS011;11033;47.490;11.116;2023-06-19T02:34:29;17.83;;;16.17;;
21741;SDS011;11033;47.490;11.116;2023-06-19T02:36:54;17.70;;;16.30;;
21741;SDS011;11033;47.490;11.116;2023-06-19T02:39:20;19.17;;;17.30;;
21741;SDS011;11033;47.490;11.116;2023-06-19T02:41:45;18.33;;;16.70;;
21741;SDS011;11033;47.490;11.116;2023-06-19T02:44:12;18.98;;;17.23;;
21741;SDS011;11033;47.490;11.116;2023-06-19T02:46:37;19.00;;;17.05;;
21741;SDS011;11033;47.490;11.116;2023-06-19T02:49:02;18.55;;;16.85;;
21741;SDS011;11033;47.490;11.116;2023-06-19T02:51:27;19.20;;;17.53;;
21741;SDS011;11033;47.490;11.116;2023-06-19T02:53:52;19.17;;;17.48;;
21741;SDS011;11033;47.490;11.116;2023-06-19T02:56:18;17.93;;;16.27;;
21741;SDS011;11033;47.490;11.116;2023-06-19T02:58:43;18.05;;;16.35;;
21741;SDS011;11033;47.490;11.116;2023-06-19T03:01:08;20.17;;;18.17;;
21741;SDS011;11033;47.490;11.116;2023-06-19T03:03:33;19.13;;;17.33;;
21741;SDS011;11033;47.490;11.116;2023-06-19T03:06:03;19.52;;;17.70;;
21741;SDS011;11033;47.490;11.116;2023-06-19T03:08:29;19.02;;;17.38;;
21741;SDS011;11033;47.490;11.116;2023-06-19T03:10:54;20.05;;;18.05;;
21741;SDS011;11033;47.490;11.116;2023-06-19T03:13:19;18.60;;;16.90;;
21741;SDS011;11033;47.490;11.116;2023-06-19T03:15:44;18.90;;;17.23;;
21741;SDS011;11033;47.490;11.116;2023-06-19T03:18:09;19.20;;;17.50;;
21741;SDS011;11033;47.490;11.116;2023-06-19T03:20:35;19.52;;;17.73;;
21741;SDS011;11033;47.490;11.116;2023-06-19T03:23:00;17.63;;;15.97;;
21741;SDS011;11033;47.490;11.116;2023-06-19T03:25:26;19.20;;;17.50;;
21741;SDS011;11033;47.490;11.116;2023-06-19T03:27:51;20.13;;;18.33;;
21741;SDS011;11033;47.490;11.116;2023-06-19T03:30:17;19.35;;;17.45;;
21741;SDS011;11033;47.490;11.116;2023-06-19T03:32:43;18.80;;;17.20;;
21741;SDS011;11033;47.490;11.116;2023-06-19T03:35:08;19.30;;;17.60;;
21741;SDS011;11033;47.490;11.116;2023-06-19T03:37:35;20.17;;;18.38;;
21741;SDS011;11033;47.490;11.116;2023-06-19T03:40:00;18.20;;;16.60;;
21741;SDS011;11033;47.490;11.116;2023-06-19T03:42:25;18.93;;;17.33;;
21741;SDS011;11033;47.490;11.116;2023-06-19T03:44:50;18.90;;;17.08;;
21741;SDS011;11033;47.490;11.116;2023-06-19T03:47:15;18.33;;;16.80;;
21741;SDS011;11033;47.490;11.116;2023-06-19T03:49:41;19.67;;;17.88;;
21741;SDS011;11033;47.490;11.116;2023-06-19T03:52:06;20.73;;;18.85;;
21741;SDS011;11033;47.490;11.116;2023-06-19T03:54:32;18.58;;;17.00;;
21741;SDS011;11033;47.490;11.116;2023-06-19T03:56:57;18.30;;;16.83;;
21741;SDS011;11033;47.490;11.116;2023-06-19T03:59:22;18.63;;;16.97;;
21741;SDS011;11033;47.490;11.116;2023-06-19T04:01:47;17.90;;;16.20;;
21741;SDS011;11033;47.490;11.116;2023-06-19T04:04:12;17.45;;;15.85;;
21741;SDS011;11033;47.490;11.116;2023-06-19T04:06:38;19.87;;;18.23;;
21741;SDS011;11033;47.490;11.116;2023-06-19T04:09:03;19.37;;;17.67;;
21741;SDS011;11033;47.490;11.116;2023-06-19T04:11:29;17.75;;;16.05;;
21741;SDS011;11033;47.490;11.116;2023-06-19T04:13:54;18.03;;;16.33;;
21741;SDS011;11033;47.490;11.116;2023-06-19T04:16:20;18.02;;;16.25;;
21741;SDS011;11033;47.490;11.116;2023-06-19T04:18:45;19.47;;;17.53;;
21741;SDS011;11033;47.490;11.116;2023-06-19T04:21:11;18.10;;;16.50;;
21741;SDS011;11033;47.490;11.116;2023-06-19T04:23:36;18.00;;;16.40;;
21741;SDS011;11033;47.490;11.116;2023-06-19T04:26:01;18.83;;;17.13;;
21741;SDS011;11033;47.490;11.116;2023-06-19T04:28:27;18.45;;;16.95;;
21741;SDS011;11033;47.490;11.116;2023-06-19T04:30:52;19.10;;;17.40;;
21741;SDS011;11033;47.490;11.116;2023-06-19T04:33:25;18.67;;;16.98;;
21741;SDS011;11033;47.490;11.116;2023-06-19T04:35:50;19.33;;;17.60;;
21741;SDS011;11033;47.490;11.116;2023-06-19T04:38:15;17.77;;;16.17;;
21741;SDS011;11033;47.490;11.116;2023-06-19T04:40:40;18.20;;;16.30;;
21741;SDS011;11033;47.490;11.116;2023-06-19T04:43:08;18.63;;;16.98;;
21741;SDS011;11033;47.490;11.116;2023-06-19T04:45:33;18.77;;;17.17;;
21741;SDS011;11033;47.490;11.116;2023-06-19T04:47:58;19.93;;;18.07;;
21741;SDS011;11033;47.490;11.116;2023-06-19T04:50:27;19.08;;;17.33;;
21741;SDS011;11033;47.490;11.116;2023-06-19T04:52:53;19.35;;;17.65;;
21741;SDS011;11033;47.490;11.116;2023-06-19T04:55:18;19.05;;;17.17;;
21741;SDS011;11033;47.490;11.116;2023-06-19T04:57:43;18.20;;;16.58;;
21741;SDS011;11033;47.490;11.116;2023-06-19T05:00:08;18.30;;;16.60;;
21741;SDS011;11033;47.490;11.116;2023-06-19T05:02:37;19.02;;;17.40;;
21741;SDS011;11033;47.490;11.116;2023-06-19T05:05:03;19.67;;;18.08;;
21741;SDS011;11033;47.490;11.116;2023-06-19T05:07:31;19.27;;;17.58;;
21741;SDS011;11033;47.490;11.116;2023-06-19T05:09:57;19.15;;;17.35;;
21741;SDS011;11033;47.490;11.116;2023-06-19T05:12:22;18.65;;;17.17;;
21741;SDS011;11033;47.490;11.116;2023-06-19T05:14:47;18.63;;;17.03;;
21741;SDS011;11033;47.490;11.116;2023-06-19T05:17:12;19.25;;;17.55;;
21741;SDS011;11033;47.490;11.116;2023-06-19T05:19:37;18.63;;;16.83;;
21741;SDS011;11033;47.490;11.116;2023-06-19T05:22:03;18.63;;;16.77;;
21741;SDS011;11033;47.490;11.116;2023-06-19T05:24:28;19.57;;;17.87;;
21741;SDS011;11033;47.490;11.116;2023-06-19T05:26:53;18.45;;;16.60;;
21741;SDS011;11033;47.490;11.116;2023-06-19T05:29:18;18.77;;;16.93;;
21741;SDS011;11033;47.490;11.116;2023-06-19T05:31:44;18.43;;;16.73;;
21741;SDS011;11033;47.490;11.116;2023-06-19T05:34:09;18.63;;;17.03;;
21741;SDS011;11033;47.490;11.116;2023-06-19T05:36:34;17.10;;;15.70;;
21741;SDS011;11033;47.490;11.116;2023-06-19T05:38:59;19.20;;;17.60;;
21741;SDS011;11033;47.490;11.116;2023-06-19T05:41:24;19.33;;;17.53;;
21741;SDS011;11033;47.490;11.116;2023-06-19T05:43:49;19.03;;;17.30;;
21741;SDS011;11033;47.490;11.116;2023-06-19T05:46:14;18.57;;;16.87;;
21741;SDS011;11033;47.490;11.116;2023-06-19T05:48:40;18.43;;;16.90;;
21741;SDS011;11033;47.490;11.116;2023-06-19T05:51:05;18.90;;;17.20;;
21741;SDS011;11033;47.490;11.116;2023-06-19T05:53:31;18.33;;;16.73;;
21741;SDS011;11033;47.490;11.116;2023-06-19T05:55:56;18.70;;;17.05;;
21741;SDS011;11033;47.490;11.116;2023-06-19T05:58:23;19.98;;;18.08;;
21741;SDS011;11033;47.490;11.116;2023-06-19T06:00:50;17.67;;;16.17;;
21741;SDS011;11033;47.490;11.116;2023-06-19T06:03:15;19.25;;;17.55;;
21741;SDS011;11033;47.490;11.116;2023-06-19T06:05:41;19.47;;;17.57;;
21741;SDS011;11033;47.490;11.116;2023-06-19T06:08:06;19.58;;;17.58;;
21741;SDS011;11033;47.490;11.116;2023-06-19T06:10:32;19.37;;;17.67;;
21741;SDS011;11033;47.490;11.116;2023-06-19T06:12:57;19.65;;;17.55;;
21741;SDS011;11033;47.490;11.116;2023-06-19T06:15:22;19.83;;;18.17;;
21741;SDS011;11033;47.490;11.116;2023-06-19T06:17:48;22.60;;;18.27;;
21741;SDS011;11033;47.490;11.116;2023-06-19T06:20:13;19.03;;;17.33;;
21741;SDS011;11033;47.490;11.116;2023-06-19T06:22:38;19.13;;;17.30;;
21741;SDS011;11033;47.490;11.116;2023-06-19T06:25:04;25.70;;;18.27;;
21741;SDS011;11033;47.490;11.116;2023-06-19T06:27:29;20.45;;;18.20;;
21741;SDS011;11033;47.490;11.116;2023-06-19T06:29:55;18.80;;;17.10;;
21741;SDS011;11033;47.490;11.116;2023-06-19T06:32:20;19.83;;;17.95;;
21741;SDS011;11033;47.490;11.116;2023-06-19T06:34:45;19.77;;;18.00;;
21741;SDS011;11033;47.490;11.116;2023-06-19T06:37:11;19.42;;;17.58;;
21741;SDS011;11033;47.490;11.116;2023-06-19T06:39:36;19.02;;;17.33;;
21741;SDS011;11033;47.490;11.116;2023-06-19T06:42:01;18.30;;;16.47;;
21741;SDS011;11033;47.490;11.116;2023-06-19T06:44:27;18.27;;;16.58;;
21741;SDS011;11033;47.490;11.116;2023-06-19T06:46:52;25.25;;;19.33;;
21741;SDS011;11033;47.490;11.116;2023-06-19T06:49:17;20.30;;;18.23;;
21741;SDS011;11033;47.490;11.116;2023-06-19T06:51:42;20.90;;;18.97;;
21741;SDS011;11033;47.490;11.116;2023-06-19T06:54:08;32.15;;;19.17;;
21741;SDS011;11033;47.490;11.116;2023-06-19T06:56:33;21.30;;;17.77;;
21741;SDS011;11033;47.490;11.116;2023-06-19T06:58:58;19.27;;;17.13;;
21741;SDS011;11033;47.490;11.116;2023-06-19T07:01:23;19.55;;;17.80;;
21741;SDS011;11033;47.490;11.116;2023-06-19T07:03:48;20.03;;;18.00;;
21741;SDS011;11033;47.490;11.116;2023-06-19T07:06:13;19.92;;;17.92;;
21741;SDS011;11033;47.490;11.116;2023-06-19T07:08:39;20.57;;;18.67;;
21741;SDS011;11033;47.490;11.116;2023-06-19T07:11:05;19.17;;;17.52;;
21741;SDS011;11033;47.490;11.116;2023-06-19T07:13:31;18.37;;;16.63;;
21741;SDS011;11033;47.490;11.116;2023-06-19T07:15:56;19.47;;;17.57;;
21741;SDS011;11033;47.490;11.116;2023-06-19T07:18:23;19.55;;;17.95;;
21741;SDS011;11033;47.490;11.116;2023-06-19T07:20:48;18.85;;;17.08;;
21741;SDS011;11033;47.490;11.116;2023-06-19T07:23:13;22.43;;;18.33;;
21741;SDS011;11033;47.490;11.116;2023-06-19T07:25:39;25.88;;;17.70;;
21741;SDS011;11033;47.490;11.116;2023-06-19T07:28:04;18.30;;;16.70;;
21741;SDS011;11033;47.490;11.116;2023-06-19T07:30:29;19.30;;;17.70;;
21741;SDS011;11033;47.490;11.116;2023-06-19T07:32:54;18.50;;;16.92;;
21741;SDS011;11033;47.490;11.116;2023-06-19T07:35:19;23.53;;;18.93;;
21741;SDS011;11033;47.490;11.116;2023-06-19T07:37:45;21.13;;;17.52;;
21741;SDS011;11033;47.490;11.116;2023-06-19T07:40:10;19.20;;;17.40;;
21741;SDS011;11033;47.490;11.116;2023-06-19T07:42:36;18.90;;;17.10;;
21741;SDS011;11033;47.490;11.116;2023-06-19T07:45:01;31.20;;;26.63;;
21741;SDS011;11033;47.490;11.116;2023-06-19T07:47:26;23.73;;;21.37;;
21741;SDS011;11033;47.490;11.116;2023-06-19T07:49:51;19.23;;;17.43;;
21741;SDS011;11033;47.490;11.116;2023-06-19T07:52:16;20.13;;;18.30;;
21741;SDS011;11033;47.490;11.116;2023-06-19T07:54:47;19.83;;;17.93;;
21741;SDS011;11033;47.490;11.116;2023-06-19T07:57:12;19.58;;;17.88;;
21741;SDS011;11033;47.490;11.116;2023-06-19T07:59:38;19.57;;;17.63;;
21741;SDS011;11033;47.490;11.116;2023-06-19T08:02:03;18.65;;;16.95;;
21741;SDS011;11033;47.490;11.116;2023-06-19T08:04:28;18.67;;;16.87;;
21741;SDS011;11033;47.490;11.116;2023-06-19T08:06:53;18.55;;;16.95;;
21741;SDS011;11033;47.490;11.116;2023-06-19T08:09:18;19.00;;;17.50;;
21741;SDS011;11033;47.490;11.116;2023-06-19T08:11:43;19.75;;;17.65;;
21741;SDS011;11033;47.490;11.116;2023-06-19T08:14:09;20.17;;;18.40;;
21741;SDS011;11033;47.490;11.116;2023-06-19T08:16:34;18.90;;;17.30;;
21741;SDS011;11033;47.490;11.116;2023-06-19T08:18:59;19.83;;;17.80;;
21741;SDS011;11033;47.490;11.116;2023-06-19T08:21:24;18.60;;;17.10;;
21741;SDS011;11033;47.490;11.116;2023-06-19T08:23:49;20.50;;;18.33;;
21741;SDS011;11033;47.490;11.116;2023-06-19T08:26:14;18.33;;;16.73;;
21741;SDS011;11033;47.490;11.116;2023-06-19T08:28:40;19.40;;;17.57;;
21741;SDS011;11033;47.490;11.116;2023-06-19T08:31:06;17.92;;;16.23;;
21741;SDS011;11033;47.490;11.116;2023-06-19T08:33:33;17.87;;;16.37;;
21741;SDS011;11033;47.490;11.116;2023-06-19T08:35:58;17.33;;;15.82;;
21741;SDS011;11033;47.490;11.116;2023-06-19T08:38:24;16.83;;;15.52;;
21741;SDS011;11033;47.490;11.116;2023-06-19T08:40:49;19.07;;;17.17;;
21741;SDS011;11033;47.490;11.116;2023-06-19T08:43:15;15.88;;;14.23;;
21741;SDS011;11033;47.490;11.116;2023-06-19T08:45:40;17.20;;;15.57;;
21741;SDS011;11033;47.490;11.116;2023-06-19T08:48:05;17.30;;;15.70;;
21741;SDS011;11033;47.490;11.116;2023-06-19T08:50:33;15.77;;;14.48;;
21741;SDS011;11033;47.490;11.116;2023-06-19T08:52:58;16.30;;;15.00;;
21741;SDS011;11033;47.490;11.116;2023-06-19T08:55:24;16.00;;;14.80;;
21741;SDS011;11033;47.490;11.116;2023-06-19T08:57:49;16.75;;;15.40;;
21741;SDS011;11033;47.490;11.116;2023-06-19T09:00:24;15.63;;;14.52;;
21741;SDS011;11033;47.490;11.116;2023-06-19T09:02:50;16.50;;;15.30;;
21741;SDS011;11033;47.490;11.116;2023-06-19T09:05:16;16.38;;;15.15;;
21741;SDS011;11033;47.490;11.116;2023-06-19T09:07:42;17.60;;;16.17;;
21741;SDS011;11033;47.490;11.116;2023-06-19T09:10:17;16.63;;;15.32;;
21741;SDS011;11033;47.490;11.116;2023-06-19T09:12:43;18.52;;;15.80;;
21741;SDS011;11033;47.490;11.116;2023-06-19T09:15:13;16.38;;;15.18;;
21741;SDS011;11033;47.490;11.116;2023-06-19T09:17:38;16.10;;;14.80;;
21741;SDS011;11033;47.490;11.116;2023-06-19T09:20:03;15.85;;;14.55;;
21741;SDS011;11033;47.490;11.116;2023-06-19T09:22:30;17.38;;;16.02;;
21741;SDS011;11033;47.490;11.116;2023-06-19T09:24:59;15.30;;;14.10;;
21741;SDS011;11033;47.490;11.116;2023-06-19T09:27:24;17.33;;;15.93;;
21741;SDS011;11033;47.490;11.116;2023-06-19T09:29:50;16.53;;;15.23;;
21741;SDS011;11033;47.490;11.116;2023-06-19T09:34:41;16.40;;;15.05;;
21741;SDS011;11033;47.490;11.116;2023-06-19T09:37:06;16.93;;;15.50;;
21741;SDS011;11033;47.490;11.116;2023-06-19T09:39:32;16.45;;;14.90;;
21741;SDS011;11033;47.490;11.116;2023-06-19T09:41:58;16.30;;;14.90;;
21741;SDS011;11033;47.490;11.116;2023-06-19T09:44:24;17.48;;;15.98;;
21741;SDS011;11033;47.490;11.116;2023-06-19T09:46:50;16.20;;;14.90;;
21741;SDS011;11033;47.490;11.116;2023-06-19T09:49:17;17.15;;;15.95;;
21741;SDS011;11033;47.490;11.116;2023-06-19T09:51:43;22.75;;;20.92;;
21741;SDS011;11033;47.490;11.116;2023-06-19T09:54:08;15.10;;;14.00;;
21741;SDS011;11033;47.490;11.116;2023-06-19T09:56:34;15.55;;;14.35;;
21741;SDS011;11033;47.490;11.116;2023-06-19T09:59:00;16.08;;;14.70;;
21741;SDS011;11033;47.490;11.116;2023-06-19T10:01:27;15.57;;;14.38;;
21741;SDS011;11033;47.490;11.116;2023-06-19T10:04:00;15.20;;;14.00;;
21741;SDS011;11033;47.490;11.116;2023-06-19T10:06:26;15.00;;;14.00;;
21741;SDS011;11033;47.490;11.116;2023-06-19T10:08:51;16.80;;;15.60;;
21741;SDS011;11033;47.490;11.116;2023-06-19T10:11:16;17.55;;;15.82;;
21741;SDS011;11033;47.490;11.116;2023-06-19T10:13:42;15.03;;;14.00;;
21741;SDS011;11033;47.490;11.116;2023-06-19T10:16:08;17.08;;;15.57;;
21741;SDS011;11033;47.490;11.116;2023-06-19T10:18:43;14.82;;;13.88;;
21741;SDS011;11033;47.490;11.116;2023-06-19T10:21:15;16.30;;;14.95;;
21741;SDS011;11033;47.490;11.116;2023-06-19T10:23:40;16.20;;;14.98;;
21741;SDS011;11033;47.490;11.116;2023-06-19T10:26:05;15.20;;;14.00;;
21741;SDS011;11033;47.490;11.116;2023-06-19T10:28:31;16.98;;;15.55;;
21741;SDS011;11033;47.490;11.116;2023-06-19T10:33:23;16.10;;;14.90;;
21741;SDS011;11033;47.490;11.116;2023-06-19T10:35:48;17.17;;;15.88;;
21741;SDS011;11033;47.490;11.116;2023-06-19T10:38:14;16.17;;;15.07;;
21741;SDS011;11033;47.490;11.116;2023-06-19T10:40:40;17.27;;;15.98;;
21741;SDS011;11033;47.490;11.116;2023-06-19T10:43:05;16.90;;;15.80;;
21741;SDS011;11033;47.490;11.116;2023-06-19T10:45:30;16.70;;;15.43;;
21741;SDS011;11033;47.490;11.116;2023-06-19T10:47:55;15.30;;;14.20;;
21741;SDS011;11033;47.490;11.116;2023-06-19T10:50:21;16.02;;;14.90;;
21741;SDS011;11033;47.490;11.116;2023-06-19T10:52:48;17.00;;;15.90;;
21741;SDS011;11033;47.490;11.116;2023-06-19T10:55:14;16.08;;;15.02;;
21741;SDS011;11033;47.490;11.116;2023-06-19T10:57:49;15.50;;;14.40;;
21741;SDS011;11033;47.490;11.116;2023-06-19T11:00:24;16.90;;;15.80;;
21741;SDS011;11033;47.490;11.116;2023-06-19T11:02:49;15.70;;;14.57;;
21741;SDS011;11033;47.490;11.116;2023-06-19T11:05:14;16.43;;;15.17;;
21741;SDS011;11033;47.490;11.116;2023-06-19T11:07:40;16.03;;;14.97;;
21741;SDS011;11033;47.490;11.116;2023-06-19T11:10:05;14.73;;;13.63;;
21741;SDS011;11033;47.490;11.116;2023-06-19T11:12:31;17.00;;;15.68;;
21741;SDS011;11033;47.490;11.116;2023-06-19T11:14:56;15.50;;;14.45;;
21741;SDS011;11033;47.490;11.116;2023-06-19T11:17:22;16.27;;;14.90;;
21741;SDS011;11033;47.490;11.116;2023-06-19T11:19:47;15.98;;;14.98;;
21741;SDS011;11033;47.490;11.116;2023-06-19T11:22:12;16.80;;;15.50;;
21741;SDS011;11033;47.490;11.116;2023-06-19T11:24:46;16.53;;;15.20;;
21741;SDS011;11033;47.490;11.116;2023-06-19T11:27:16;14.35;;;13.43;;
21741;SDS011;11033;47.490;11.116;2023-06-19T11:29:41;16.75;;;15.45;;
21741;SDS011;11033;47.490;11.116;2023-06-19T11:32:16;16.23;;;15.03;;
21741;SDS011;11033;47.490;11.116;2023-06-19T11:34:49;16.70;;;15.48;;
21741;SDS011;11033;47.490;11.116;2023-06-19T11:37:16;16.08;;;14.85;;
21741;SDS011;11033;47.490;11.116;2023-06-19T11:39:46;15.82;;;14.82;;
21741;SDS011;11033;47.490;11.116;2023-06-19T11:42:11;15.55;;;14.23;;
21741;SDS011;11033;47.490;11.116;2023-06-19T11:44:52;16.70;;;15.53;;
21741;SDS011;11033;47.490;11.116;2023-06-19T11:47:18;16.27;;;15.13;;
21741;SDS011;11033;47.490;11.116;2023-06-19T11:49:43;16.20;;;14.95;;
21741;SDS011;11033;47.490;11.116;2023-06-19T11:52:08;15.68;;;14.68;;
21741;SDS011;11033;47.490;11.116;2023-06-19T11:54:33;16.40;;;15.20;;
21741;SDS011;11033;47.490;11.116;2023-06-19T11:56:58;16.17;;;15.07;;
21741;SDS011;11033;47.490;11.116;2023-06-19T11:59:23;15.40;;;14.30;;
21741;SDS011;11033;47.490;11.116;2023-06-19T12:01:49;14.63;;;13.60;;
21741;SDS011;11033;47.490;11.116;2023-06-19T12:04:14;15.63;;;14.35;;
21741;SDS011;11033;47.490;11.116;2023-06-19T12:06:40;16.17;;;14.98;;
21741;SDS011;11033;47.490;11.116;2023-06-19T12:09:05;16.08;;;14.98;;
21741;SDS011;11033;47.490;11.116;2023-06-19T12:11:30;15.90;;;14.90;;
21741;SDS011;11033;47.490;11.116;2023-06-19T12:13:55;15.90;;;14.80;;
21741;SDS011;11033;47.490;11.116;2023-06-19T12:16:22;14.68;;;13.77;;
21741;SDS011;11033;47.490;11.116;2023-06-19T12:18:48;14.77;;;13.50;;
21741;SDS011;11033;47.490;11.116;2023-06-19T12:21:13;16.27;;;15.17;;
21741;SDS011;11033;47.490;11.116;2023-06-19T12:23:38;15.93;;;14.73;;
21741;SDS011;11033;47.490;11.116;2023-06-19T12:26:03;15.87;;;14.43;;
21741;SDS011;11033;47.490;11.116;2023-06-19T12:28:28;15.68;;;14.35;;
21741;SDS011;11033;47.490;11.116;2023-06-19T12:30:54;16.15;;;14.98;;
21741;SDS011;11033;47.490;11.116;2023-06-19T12:33:21;16.02;;;14.88;;
21741;SDS011;11033;47.490;11.116;2023-06-19T12:35:46;16.20;;;15.00;;
21741;SDS011;11033;47.490;11.116;2023-06-19T12:38:12;15.60;;;14.50;;
21741;SDS011;11033;47.490;11.116;2023-06-19T12:40:37;16.52;;;14.93;;
21741;SDS011;11033;47.490;11.116;2023-06-19T12:43:02;16.27;;;15.00;;
21741;SDS011;11033;47.490;11.116;2023-06-19T12:45:28;15.33;;;14.33;;
21741;SDS011;11033;47.490;11.116;2023-06-19T12:47:53;15.85;;;14.65;;
21741;SDS011;11033;47.490;11.116;2023-06-19T12:50:18;16.60;;;15.60;;
21741;SDS011;11033;47.490;11.116;2023-06-19T12:52:43;15.88;;;14.82;;
21741;SDS011;11033;47.490;11.116;2023-06-19T12:55:08;15.87;;;14.70;;
21741;SDS011;11033;47.490;11.116;2023-06-19T12:57:34;21.23;;;19.43;;
21741;SDS011;11033;47.490;11.116;2023-06-19T12:59:59;21.60;;;19.97;;
21741;SDS011;11033;47.490;11.116;2023-06-19T13:02:24;16.80;;;15.60;;
21741;SDS011;11033;47.490;11.116;2023-06-19T13:04:49;16.90;;;15.70;;
21741;SDS011;11033;47.490;11.116;2023-06-19T13:07:14;16.47;;;15.27;;
21741;SDS011;11033;47.490;11.116;2023-06-19T13:09:40;24.15;;;21.92;;
21741;SDS011;11033;47.490;11.116;2023-06-19T13:12:05;17.50;;;16.30;;
21741;SDS011;11033;47.490;11.116;2023-06-19T13:14:31;16.02;;;14.82;;
21741;SDS011;11033;47.490;11.116;2023-06-19T13:16:59;17.10;;;16.00;;
21741;SDS011;11033;47.490;11.116;2023-06-19T13:19:24;15.57;;;14.55;;
21741;SDS011;11033;47.490;11.116;2023-06-19T13:21:50;15.90;;;14.90;;
21741;SDS011;11033;47.490;11.116;2023-06-19T13:24:16;17.40;;;16.17;;
21741;SDS011;11033;47.490;11.116;2023-06-19T13:26:41;16.10;;;14.90;;
21741;SDS011;11033;47.490;11.116;2023-06-19T13:29:06;14.90;;;14.00;;
21741;SDS011;11033;47.490;11.116;2023-06-19T13:31:31;17.07;;;15.87;;
21741;SDS011;11033;47.490;11.116;2023-06-19T13:33:56;16.17;;;15.10;;
21741;SDS011;11033;47.490;11.116;2023-06-19T13:36:22;16.15;;;15.02;;
21741;SDS011;11033;47.490;11.116;2023-06-19T13:38:48;16.42;;;15.10;;
21741;SDS011;11033;47.490;11.116;2023-06-19T13:41:14;13.87;;;12.97;;
21741;SDS011;11033;47.490;11.116;2023-06-19T13:43:39;15.27;;;14.25;;
21741;SDS011;11033;47.490;11.116;2023-06-19T13:46:05;15.05;;;13.98;;
21741;SDS011;11033;47.490;11.116;2023-06-19T13:48:30;14.35;;;13.45;;
21741;SDS011;11033;47.490;11.116;2023-06-19T13:50:59;14.50;;;13.53;;
21741;SDS011;11033;47.490;11.116;2023-06-19T13:53:25;16.02;;;14.88;;
21741;SDS011;11033;47.490;11.116;2023-06-19T13:55:50;16.37;;;15.17;;
21741;SDS011;11033;47.490;11.116;2023-06-19T13:58:15;14.20;;;13.07;;
21741;SDS011;11033;47.490;11.116;2023-06-19T14:00:40;14.63;;;13.67;;
21741;SDS011;11033;47.490;11.116;2023-06-19T14:03:06;14.47;;;13.57;;
21741;SDS011;11033;47.490;11.116;2023-06-19T14:05:32;13.82;;;12.82;;